• Join FlightAware (Why Join?)
  • Login
  • US Flag 
Trick or treat! (Boo!!) 
01:38AM EDT


 

Airport Tracker/Info


-or-


 

Live Flight TrackerFlight Track Log ✈ UAL1082 ✈ 24-Oct-2013 ✈ KEWR - MROC / SJO

Flight Track Log - Related Links

Times and Time Zones

All times are in EDT time to prevent confusion due to time zone crossing. See the UAL1082 flight status page for this flight to view local times or setup timezone preferences in your user account.

Time Position Orientation Groundspeed Altitude Reporting Facility
EDT Latitude Longitude Course Direction KTS MPH feet Rate Location/Type
06:38PM 40.6167 -74.2000 218° Southwest 197 227 2,600  Level New York TRACON
06:39PM 40.5667 -74.2500 217° Southwest 238 274 5,100 1,260 Climbing New York TRACON
06:40PM 40.3656 -74.3157 217° Southwest  Level Estimated
06:41PM 40.2566 -74.3644 180° South  Level Estimated
06:41PM 40.4608 -74.2353 174° South 283 326 6,000  Level New York Center
06:42PM 40.1476 -74.4130 218° Southwest  Level Estimated
06:42PM 40.3950 -74.2019 159° South 283 326 6,000  Level New York Center
06:43PM 40.0386 -74.4614 218° Southwest  Level Estimated
06:43PM 40.3128 -74.1681 163° South 283 326 6,900  Level New York Center
06:44PM 40.2331 -74.1858 190° South 277 319 9,900 2,400 Climbing New York Center
06:45PM 40.1489 -74.2142 194° South 288 331 11,700 1,920 Climbing New York Center
06:46PM 40.0606 -74.2369 191° South 345 397 13,800 2,460 Climbing New York Center
06:48PM 39.8594 -74.3914 211° Southwest 367 422 20,100 2,700 Climbing Washington Center
06:49PM 39.7811 -74.4792 221° Southwest 367 422 23,000 2,280 Climbing Washington Center
06:50PM 39.7153 -74.5639 225° Southwest 347 399 24,700 1,560 Climbing Washington Center
06:51PM 39.6514 -74.6508 226° Southwest 336 387 26,100 1,260 Climbing Washington Center
06:52PM 39.5833 -74.7433 226° Southwest 336 387 27,200 1,320 Climbing Washington Center
06:53PM 39.5153 -74.8331 225° Southwest 342 394 28,800 1,500 Climbing Washington Center
06:54PM 39.4492 -74.9197 225° Southwest 342 394 30,300 1,620 Climbing Washington Center
06:55PM 39.3850 -75.0036 225° Southwest 342 394 32,100 1,560 Climbing Washington Center
06:56PM 39.3228 -75.0872 226° Southwest 329 379 33,400 840 Climbing Washington Center
06:57PM 39.2397 -75.1414 207° Southwest 331 381 33,800 360 Climbing Washington Center
06:58PM 39.1439 -75.1903 202° Southwest 340 391 34,200 600 Climbing Washington Center
06:59PM 39.0483 -75.2361 200° South 365 420 35,000 900 Climbing Washington Center
07:00PM 38.9544 -75.2928 205° Southwest 370 426 36,000 480 Climbing Washington Center
07:01PM 38.8631 -75.3383 201° Southwest 370 426 36,000  Level Washington Center
07:02PM 38.7692 -75.3867 202° Southwest 370 426 36,000 -60 Level Washington Center
07:03PM 38.6775 -75.4347 202° Southwest 370 426 35,900  Descending Washington Center
07:04PM 38.5817 -75.4828 201° Southwest 370 426 36,000  Climbing Washington Center
07:05PM 38.4900 -75.5306 202° Southwest 370 426 36,000 -60 Level Washington Center
07:06PM 38.3983 -75.5811 203° Southwest 370 426 35,900  Descending Washington Center
07:07PM 38.3025 -75.6261 200° South 370 426 36,000  Climbing Washington Center
07:08PM 38.2086 -75.6711 201° Southwest 370 426 36,000  Level Washington Center
07:09PM 38.1147 -75.7211 203° Southwest 370 426 36,000  Level Washington Center
07:10PM 38.0333 -75.7683 205° Southwest 370 426 36,000  Level Washington Center
07:11PM 37.9394 -75.8128 200° South 370 426 36,000  Level Washington Center
07:12PM 37.8308 -75.8678 202° Southwest 376 433 36,000  Level Washington Center
07:13PM 37.7494 -75.9147 205° Southwest 376 433 36,000  Level Washington Center
07:14PM 37.6553 -75.9617 202° Southwest 371 427 36,000 -60 Level Washington Center
07:15PM 37.5614 -76.0111 203° Southwest 371 427 35,900  Descending Washington Center
07:16PM 37.4672 -76.0550 200° South 371 427 36,000  Climbing Washington Center
07:17PM 37.3711 -76.1042 202° Southwest 371 427 36,000  Level Washington Center
07:18PM 37.2772 -76.1531 203° Southwest 371 427 36,000  Level Washington Center
07:19PM 37.1683 -76.1992 199° South 371 427 36,000  Level Washington Center
07:20PM 37.0742 -76.2478 202° Southwest 376 433 36,100 420 Climbing Washington Center
07:21PM 36.9781 -76.2939 201° Southwest 371 427 36,900 600 Climbing Washington Center
07:22PM 36.8839 -76.3397 201° Southwest 371 427 37,400 480 Climbing Washington Center
07:23PM 36.7919 -76.3881 203° Southwest 371 427 37,900 300 Climbing Washington Center
07:24PM 36.7144 -76.4236 200° South 371 427 38,000  Climbing Washington Center
07:25PM 36.6117 -76.4794 204° Southwest 376 433 38,000  Level Washington Center
07:26PM 36.5156 -76.5275 202° Southwest 376 433 38,000 -60 Level Washington Center
07:27PM 36.4192 -76.5728 201° Southwest 376 433 37,900  Descending Washington Center
07:28PM 36.3228 -76.6181 201° Southwest 376 433 38,000  Climbing Washington Center
07:29PM 36.2158 -76.6706 202° Southwest 376 433 38,000  Level Washington Center
07:30PM 36.1194 -76.7156 201° Southwest 376 433 38,000  Level Washington Center
07:31PM 36.0250 -76.7631 202° Southwest 371 427 38,000  Level Washington Center
07:32PM 35.9308 -76.8053 200° South 371 427 38,000  Level Washington Center
07:33PM 35.8364 -76.8525 202° Southwest 371 427 38,000  Level Washington Center
07:34PM 35.7419 -76.8972 201° Southwest 371 427 38,000  Level Washington Center
07:35PM 35.6456 -76.9417 201° Southwest 371 427 38,000  Level Washington Center
07:36PM 35.5511 -76.9886 202° Southwest 371 427 38,000  Level Washington Center
07:37PM 35.4589 -77.0353 202° Southwest 371 427 38,000  Level Washington Center
07:38PM 35.3603 -77.0794 200° South 371 427 38,000  Level Washington Center
07:39PM 35.2658 -77.1236 201° Southwest 371 427 38,000  Level Washington Center
07:40PM 35.1692 -77.1700 201° Southwest 371 427 38,000  Level Washington Center
07:41PM 35.0725 -77.2164 201° Southwest 371 427 38,000  Level Washington Center
07:42PM 34.9781 -77.2600 201° Southwest 371 427 38,000  Level Washington Center
07:43PM 34.8814 -77.3061 201° Southwest 371 427 38,000  Level Washington Center
07:44PM 34.7889 -77.3547 203° Southwest 371 427 38,000  Level Washington Center
07:45PM 34.6903 -77.3981 200° South 371 427 38,000  Level Washington Center
07:46PM 34.5914 -77.4439 201° Southwest 376 433 38,000 -60 Level Washington Center
07:47PM 34.5097 -77.4722 196° South 376 433 37,900  Descending Washington Center
07:48PM 34.3964 -77.5100 195° South 381 438 38,000  Climbing Washington Center
07:49PM 34.2936 -77.5428 195° South 386 444 38,000  Level Washington Center
07:51PM 34.1072 -77.6008 194° South 376 433 38,000  Level Jacksonville Center
07:52PM 34.0022 -77.6325 194° South 383 441 38,000  Level Jacksonville Center
07:53PM 33.8972 -77.6711 197° South 393 452 38,000  Level Jacksonville Center
07:54PM 33.7942 -77.6997 193° South 393 452 38,000  Level Jacksonville Center
07:55PM 33.6892 -77.7358 196° South 393 452 38,000 -60 Level Jacksonville Center
07:56PM 33.5842 -77.7694 195° South 393 452 37,900 -60 Descending Jacksonville Center
07:57PM 33.4936 -77.7972 194° South 388 447 37,900  Level Jacksonville Center
07:58PM 33.3906 -77.8303 195° South 388 447 38,000  Climbing Jacksonville Center
07:59PM 33.2894 -77.8611 194° South 388 447 38,000  Level Jacksonville Center
08:00PM 33.1844 -77.8942 195° South 388 447 38,000 -60 Level Jacksonville Center
08:01PM 33.0836 -77.9272 195° South 388 447 37,900  Descending Jacksonville Center
08:02PM 32.9803 -77.9575 194° South 388 447 38,000  Climbing Jacksonville Center
08:04PM 32.7722 -78.0233 195° South 393 452 38,000 -60 Level Jacksonville Center
08:05PM 32.6711 -78.0558 195° South 393 452 37,900  Descending Jacksonville Center
08:06PM 32.5700 -78.0858 194° South 393 452 38,000  Climbing Jacksonville Center
08:07PM 32.4667 -78.1161 194° South 388 447 37,900  Descending Jacksonville Center
08:08PM 32.3658 -78.1533 197° South 388 447 38,000  Climbing Jacksonville Center
08:09PM 32.2625 -78.1808 193° South 388 447 38,000  Level Jacksonville Center
08:10PM 32.1614 -78.2131 195° South 388 447 38,000  Level Jacksonville Center
08:11PM 32.0544 -78.2503 196° South 383 441 38,000  Level Jacksonville Center
08:12PM 31.9553 -78.2797 194° South 370 426 38,000  Level Jacksonville Center
08:13PM 31.8583 -78.3114 196° South 370 426 38,000  Level Jacksonville Center
08:14PM 31.7614 -78.3433 196° South 365 420 38,000 -60 Level Jacksonville Center
08:15PM 31.6622 -78.3750 195° South 365 420 37,900  Descending Jacksonville Center
08:16PM 31.5672 -78.4039 195° South 358 412 38,000  Climbing Jacksonville Center
08:17PM 31.4661 -78.4381 196° South 370 426 38,000  Level Jacksonville Center
08:18PM 31.3669 -78.4669 194° South 372 428 38,000 -60 Level Jacksonville Center
08:19PM 31.2681 -78.5008 196° South 365 420 37,900  Descending Jacksonville Center
08:20PM 31.1689 -78.5297 194° South 378 435 38,000  Climbing Jacksonville Center
08:22PM 30.9831 -78.5894 195° South 373 429 37,900  Descending Jacksonville Center
08:23PM 30.8775 -78.6231 195° South 379 436 38,000  Climbing Jacksonville Center
08:24PM 30.7722 -78.6544 194° South 384 442 38,000  Level Jacksonville Center
08:25PM 30.6689 -78.6856 195° South 389 448 38,000  Level Jacksonville Center
08:25PM 30.6103 -78.7086 199° South 388 447 38,000 -120 Level Miami Center
08:26PM 30.5117 -78.7453 198° South 377 434 37,900  Descending Miami Center
08:27PM 30.4092 -78.7794 196° South 377 434 38,000  Climbing Miami Center
08:28PM 30.3025 -78.8161 197° South 388 447 37,900 -60 Descending Miami Center
08:29PM 30.2017 -78.8550 198° South 388 447 37,900  Level Miami Center
08:30PM 30.1011 -78.8914 197° South 381 438 38,000  Climbing Miami Center
08:31PM 29.9964 -78.9325 199° South 388 447 38,000  Level Miami Center
08:32PM 29.8978 -78.9739 200° South 393 452 38,000  Level Miami Center
08:33PM 29.7928 -79.0147 199° South 393 452 38,000  Level Miami Center
08:34PM 29.6961 -79.0653 204° Southwest 393 452 38,000  Level Miami Center
08:35PM 29.5872 -79.1039 197° South 393 452 38,000  Level Miami Center
08:36PM 29.4822 -79.1469 200° South 393 452 38,000  Level Miami Center
08:37PM 29.3856 -79.1947 203° Southwest 393 452 38,000  Level Miami Center
08:38PM 29.2783 -79.2331 197° South 393 452 38,000  Level Miami Center
08:39PM 29.1797 -79.2808 203° Southwest 393 452 38,000  Level Miami Center
08:40PM 29.0744 -79.3236 200° South 393 452 38,000  Level Miami Center
08:41PM 28.9717 -79.3689 201° Southwest 398 458 38,000  Level Miami Center
08:42PM 28.8664 -79.4114 199° South 398 458 38,000  Level Miami Center
08:43PM 28.7633 -79.4539 200° South 398 458 38,000  Level Miami Center
08:44PM 28.6583 -79.4989 201° Southwest 398 458 38,000  Level Miami Center
08:45PM 28.5531 -79.5414 200° South 398 458 38,000  Level Miami Center
08:46PM 28.4458 -79.5858 200° South 398 458 38,000  Level Miami Center
08:47PM 28.3386 -79.6306 200° South 405 466 38,000  Level Miami Center
08:48PM 28.2333 -79.6750 200° South 411 473 38,000  Level Miami Center
08:49PM 28.1219 -79.7194 199° South 416 479 38,000  Level Miami Center
08:50PM 28.0125 -79.7661 201° Southwest 416 479 38,000  Level Miami Center
08:51PM 27.9031 -79.8103 200° South 421 484 38,000  Level Miami Center
08:52PM 27.7956 -79.8544 200° South 421 484 38,000  Level Miami Center
08:53PM 27.6839 -79.9031 201° Southwest 426 490 38,000  Level Miami Center
08:54PM 27.5703 -79.9469 199° South 426 490 38,000  Level Miami Center
08:55PM 27.4586 -79.9908 199° South 431 496 38,000  Level Miami Center
08:56PM 27.3492 -80.0369 201° Southwest 431 496 38,000  Level Miami Center
08:57PM 27.2500 -80.0808 201° Southwest 431 496 38,000  Level Miami Center
08:58PM 27.1403 -80.1222 199° South 426 490 38,000  Level Miami Center
08:59PM 27.0225 -80.1700 200° South 424 488 38,000  Level Miami Center
09:00PM 26.9211 -80.2161 202° Southwest 424 488 38,000  Level Miami Center
09:01PM 26.8114 -80.2594 199° South 424 488 38,000  Level Miami Center
09:02PM 26.6914 -80.3094 200° South 424 488 38,000  Level Miami Center
09:03PM 26.5794 -80.3550 200° South 429 494 38,000  Level Miami Center
09:04PM 26.4697 -80.4006 200° South 429 494 38,000  Level Miami Center
09:05PM 26.3539 -80.4458 199° South 434 499 38,000  Level Miami Center
09:06PM 26.2653 -80.4825 200° South 434 499 38,000  Level Miami Center
09:07PM 26.1431 -80.5272 198° South 428 493 38,000  Level Miami Center
09:08PM 26.0331 -80.5747 201° Southwest 428 493 38,000  Level Miami Center
09:09PM 25.9192 -80.6175 199° South 434 499 38,000  Level Miami Center
09:10PM 25.8072 -80.6669 202° Southwest 434 499 38,000 300 Level Miami Center
09:11PM 25.6744 -80.7181 199° South 447 514 38,700 420 Climbing Miami Center
09:12PM 25.5644 -80.7653 201° Southwest 447 514 38,900 120 Climbing Miami Center
09:13PM 25.4506 -80.8075 199° South 442 509 39,000  Climbing Miami Center
09:14PM 25.3344 -80.8519 199° South 442 509 39,000  Level Miami Center
09:15PM 25.2225 -80.8967 200° South 437 503 39,000  Level Miami Center
09:16PM 25.1106 -80.9433 201° Southwest 437 503 39,000  Level Miami Center
09:17PM 24.9944 -80.9853 198° South 437 503 39,000 -60 Level Miami Center
09:18PM 24.8825 -81.0367 203° Southwest 437 503 38,900 -60 Descending Miami Center
09:19PM 24.7603 -81.0758 196° South 437 503 38,900  Level Miami Center
09:20PM 24.6422 -81.1106 195° South 442 509 39,000  Climbing Miami Center
09:21PM 24.5222 -81.1478 196° South 442 509 38,900  Descending Miami Center
09:22PM 24.4000 -81.1822 194° South 447 514 39,000  Climbing Miami Center
09:23PM 24.2778 -81.2167 194° South 447 514 38,900  Descending Miami Center
09:24PM 24.1578 -81.2514 195° South 447 514 39,000  Climbing Miami Center
09:25PM 24.0356 -81.2903 196° South 453 521 39,000 -60 Level Miami Center
09:26PM 23.9133 -81.3244 194° South 453 521 38,900 -120 Descending Miami Center
09:28PM 23.7818 -81.3273 181° South  Level FlightAware Approximate
09:35PM 22.9981 -81.4557 196° South  Level FlightAware Approximate
09:36PM 22.8896 -81.4891 196° South  Level FlightAware Approximate
09:37PM 22.7813 -81.5229 197° South  Level FlightAware Approximate
09:38PM 22.6735 -81.5589 197° South  Level FlightAware Approximate
09:39PM 22.5656 -81.5943 196° South  Level FlightAware Approximate
09:40PM 22.4573 -81.6285 196° South  Level FlightAware Approximate
09:41PM 22.3491 -81.6628 196° South  Level FlightAware Approximate
09:42PM 22.2409 -81.6970 196° South  Level FlightAware Approximate
09:43PM 22.1327 -81.7311 196° South  Level FlightAware Approximate
09:44PM 22.0244 -81.7652 196° South  Level FlightAware Approximate
09:45PM 21.9167 -81.8011 198° South  Level FlightAware Approximate
09:46PM 21.8096 -81.8392 198° South  Level FlightAware Approximate
09:47PM 21.7025 -81.8772 198° South  Level FlightAware Approximate
09:48PM 21.5954 -81.9152 198° South  Level FlightAware Approximate
09:49PM 21.4883 -81.9531 198° South  Level FlightAware Approximate
09:50PM 21.3807 -81.9891 197° South  Level FlightAware Approximate
09:51PM 21.2727 -82.0240 197° South  Level FlightAware Approximate
09:52PM 21.1647 -82.0588 197° South  Level FlightAware Approximate
09:53PM 21.0567 -82.0936 197° South  Level FlightAware Approximate
09:54PM 20.9488 -82.1284 197° South  Level FlightAware Approximate
09:55PM 20.8408 -82.1631 197° South  Level FlightAware Approximate
09:56PM 20.7328 -82.1978 197° South  Level FlightAware Approximate
09:57PM 20.6248 -82.2324 197° South  Level FlightAware Approximate
09:58PM 20.5168 -82.2670 197° South  Level FlightAware Approximate
09:59PM 20.4087 -82.3016 197° South  Level FlightAware Approximate
10:00PM 20.3007 -82.3361 197° South  Level FlightAware Approximate
10:01PM 20.1927 -82.3705 197° South  Level FlightAware Approximate
10:02PM 20.0840 -82.4000 180° South  Level FlightAware Approximate
10:03PM 19.9733 -82.4211 192° South  Level FlightAware Approximate
10:04PM 19.8630 -82.4461 192° South  Level FlightAware Approximate
10:05PM 19.7527 -82.4710 192° South  Level FlightAware Approximate
10:06PM 19.6424 -82.4958 192° South  Level FlightAware Approximate
10:07PM 19.5321 -82.5208 192° South  Level FlightAware Approximate
10:08PM 19.4220 -82.5462 192° South  Level FlightAware Approximate
10:09PM 19.3242 -82.5687 192° South  Level FlightAware Approximate
10:10PM 19.2264 -82.5913 192° South  Level FlightAware Approximate
10:11PM 19.1287 -82.6137 192° South  Level FlightAware Approximate
10:12PM 19.0309 -82.6362 192° South  Level FlightAware Approximate
10:13PM 18.9331 -82.6586 192° South  Level FlightAware Approximate
10:14PM 18.8354 -82.6810 192° South  Level FlightAware Approximate
10:15PM 18.7376 -82.7034 192° South  Level FlightAware Approximate
10:16PM 18.6398 -82.7258 192° South  Level FlightAware Approximate
10:17PM 18.5421 -82.7481 192° South  Level FlightAware Approximate
10:18PM 18.4443 -82.7704 192° South  Level FlightAware Approximate
10:19PM 18.3465 -82.7926 192° South  Level FlightAware Approximate
10:20PM 18.2487 -82.8149 192° South  Level FlightAware Approximate
10:21PM 18.1509 -82.8371 192° South  Level FlightAware Approximate
10:22PM 18.0531 -82.8593 192° South  Level FlightAware Approximate
10:23PM 17.9554 -82.8815 192° South  Level FlightAware Approximate
10:24PM 17.8576 -82.9036 192° South  Level FlightAware Approximate
10:25PM 17.7597 -82.9256 192° South  Level FlightAware Approximate
10:26PM 17.6618 -82.9472 192° South  Level FlightAware Approximate
10:27PM 17.5639 -82.9688 192° South  Level FlightAware Approximate
10:28PM 17.4660 -82.9904 192° South  Level FlightAware Approximate
10:29PM 17.3681 -83.0119 192° South  Level FlightAware Approximate
10:30PM 17.2702 -83.0335 192° South  Level FlightAware Approximate
10:31PM 17.1723 -83.0550 192° South  Level FlightAware Approximate
10:32PM 17.0617 -83.0793 192° South  Level FlightAware Approximate
10:33PM 16.9512 -83.1035 192° South  Level FlightAware Approximate
10:34PM 16.8406 -83.1277 192° South  Level FlightAware Approximate
10:35PM 16.7300 -83.1519 192° South  Level FlightAware Approximate
10:36PM 16.6194 -83.1761 192° South  Level FlightAware Approximate
10:37PM 16.5088 -83.2002 192° South  Level FlightAware Approximate
10:38PM 16.3982 -83.2243 192° South  Level FlightAware Approximate
10:39PM 16.2876 -83.2484 192° South  Level FlightAware Approximate
10:40PM 16.1770 -83.2724 192° South  Level FlightAware Approximate
10:41PM 16.0664 -83.2964 192° South  Level FlightAware Approximate
10:42PM 15.9555 -83.3189 191° South  Level FlightAware Approximate
10:43PM 15.8446 -83.3411 191° South  Level FlightAware Approximate
10:44PM 15.7336 -83.3633 191° South  Level FlightAware Approximate
10:45PM 15.6227 -83.3854 191° South  Level FlightAware Approximate
10:46PM 15.5117 -83.4075 191° South  Level FlightAware Approximate
10:47PM 15.4008 -83.4296 191° South  Level FlightAware Approximate
10:48PM 15.2898 -83.4517 191° South  Level FlightAware Approximate
10:49PM 15.1789 -83.4737 191° South  Level FlightAware Approximate
10:50PM 15.0679 -83.4958 191° South  Level FlightAware Approximate
10:51PM 14.9569 -83.5178 191° South  Level FlightAware Approximate
10:52PM 14.8460 -83.5397 191° South  Level FlightAware Approximate
10:53PM 14.7350 -83.5617 191° South  Level FlightAware Approximate
10:54PM 14.6240 -83.5836 191° South  Level FlightAware Approximate
10:55PM 14.5130 -83.6055 191° South  Level FlightAware Approximate
10:56PM 14.4021 -83.6274 191° South  Level FlightAware Approximate
10:57PM 14.2911 -83.6493 191° South  Level FlightAware Approximate
10:58PM 14.1801 -83.6711 191° South  Level FlightAware Approximate
10:59PM 14.0691 -83.6930 191° South  Level FlightAware Approximate
11:00PM 13.9582 -83.7150 191° South  Level FlightAware Approximate
11:01PM 13.8473 -83.7375 192° South  Level FlightAware Approximate
11:02PM 13.7368 -83.7615 192° South  Level FlightAware Approximate
11:03PM 13.6262 -83.7855 192° South  Level FlightAware Approximate
11:04PM 13.5157 -83.8095 192° South  Level FlightAware Approximate
11:05PM 13.4051 -83.8335 192° South  Level FlightAware Approximate
11:06PM 13.2946 -83.8574 192° South  Level FlightAware Approximate
11:07PM 13.1840 -83.8813 192° South  Level FlightAware Approximate
11:08PM 13.0735 -83.9052 192° South  Level FlightAware Approximate
11:09PM 12.9629 -83.9290 192° South  Level FlightAware Approximate
11:10PM 12.8523 -83.9529 192° South  Level FlightAware Approximate
11:11PM 12.7417 -83.9767 192° South  Level FlightAware Approximate
11:12PM 12.6312 -84.0007 198° South  Level FlightAware Approximate
11:13PM 12.5218 -84.0282 190° South  Level FlightAware Approximate
11:14PM 12.4106 -84.0491 190° South  Level FlightAware Approximate
11:15PM 12.2996 -84.0705 192° South  Level FlightAware Approximate
11:16PM 12.1892 -84.0950 192° South  Level FlightAware Approximate
11:17PM 12.0788 -84.1196 192° South  Level FlightAware Approximate
11:18PM 11.9684 -84.1441 192° South  Level FlightAware Approximate
11:19PM 11.8580 -84.1688 194° South  Level FlightAware Approximate
11:20PM 11.7480 -84.1949 192° South  Level FlightAware Approximate
11:21PM 11.6374 -84.2181 186° South  Level FlightAware Approximate
11:22PM 11.5250 -84.2306 186° South  Level FlightAware Approximate
11:23PM 11.4144 -84.2535 193° South  Level FlightAware Approximate
11:24PM 11.3043 -84.2794 193° South  Level FlightAware Approximate
11:25PM 11.1941 -84.3047 192° South  Level FlightAware Approximate
11:26PM 11.0835 -84.3280 192° South  Level FlightAware Approximate
11:27PM 10.9729 -84.3513 192° South  Level FlightAware Approximate
11:28PM 10.8620 -84.3736 190° South  Level FlightAware Approximate
11:29PM 10.7508 -84.3938 190° South  Level FlightAware Approximate
11:30PM 10.6402 -84.4170 192° South  Level FlightAware Approximate